KLAR/LAR METAR and TAF weather

Enter ICAO airport designator
Station Type Date Time Source
KLAR METAR 2019/06/26 17:53 UTC NOAA

KLAR 261753Z AUTO 19009KT 10SM CLR 24/02 A3016 RMK AO2 SLPNO 6//// T02390022 56006


Station Type Date Time Source
KLAR Decoded METAR 2019/06/26 17:53 UTC NOAA

LARAMIE REGIONAL AIRPORT, WY, United States (KLAR) 41-19N 105-40W 2216M
Jun 26, 2019 - 01:53 PM EDT / 2019.06.26 1753 UTC
Wind: from the S (190 degrees) at 10 MPH (9 KT):0
Visibility: 10 mile(s):0
Sky conditions: clear
Temperature: 75.0 F (23.9 C)
Dew Point: 36.0 F (2.2 C)
Relative Humidity: 24%
Pressure (altimeter): 30.16 in. Hg (1021 hPa)
Pressure tendency: 0.02 inches (0.6 hPa) lower than three hours ago
ob: KLAR 261753Z AUTO 19009KT 10SM CLR 24/02 A3016 RMK AO2 SLPNO 6//// T02390022 56006
cycle: 18

Station Type Date Time Source
KLAR TAF 2019/06/26 18:48 UTC NOAA

TAF KLAR 261744Z 2618/2718 20008KT P6SM BKN180
FM262000 21011G20KT P6SM SCT250
FM270000 21011KT P6SM SCT250

Example: see airport list